createdAt,value
2022-12-24T00:01:34.843Z,94341.69
2022-12-24T00:04:02.411Z,94352.00
2022-12-24T00:06:30.027Z,94342.44
2022-12-24T00:08:57.705Z,94348.75
2022-12-24T00:11:26.665Z,94347.09
2022-12-24T00:13:54.249Z,94358.53
2022-12-24T00:16:21.847Z,94367.81
2022-12-24T00:18:49.505Z,94354.44
2022-12-24T00:21:17.105Z,94359.63
2022-12-24T00:23:44.737Z,94358.53
2022-12-24T00:26:12.716Z,94363.69
2022-12-24T00:28:42.339Z,94360.69
2022-12-24T00:31:12.124Z,94351.97
2022-12-24T00:33:40.054Z,94354.16
2022-12-24T00:36:08.618Z,94353.81
2022-12-24T00:38:36.432Z,94362.28
2022-12-24T00:41:05.322Z,94372.06
2022-12-24T00:43:33.317Z,94388.13
2022-12-24T00:46:02.325Z,94386.22
2022-12-24T00:48:29.934Z,94390.56
2022-12-24T00:50:57.555Z,94385.38
2022-12-24T00:53:25.393Z,94386.19
2022-12-24T00:55:53.038Z,94389.72
2022-12-24T00:58:20.635Z,94381.81
2022-12-24T01:00:48.225Z,94394.31
2022-12-24T01:03:17.204Z,94392.69
2022-12-24T01:05:43.874Z,94394.31
2022-12-24T01:08:11.536Z,94411.19
2022-12-24T01:10:39.127Z,94413.38
2022-12-24T01:13:06.782Z,94418.25
2022-12-24T01:15:34.406Z,94424.47
2022-12-24T01:18:02.033Z,94429.91
2022-12-24T01:20:33.029Z,94432.28
2022-12-24T01:23:01.466Z,94425.47
2022-12-24T01:25:29.159Z,94426.28
2022-12-24T01:27:56.780Z,94429.00
2022-12-24T01:30:24.566Z,94434.16
2022-12-24T01:32:52.126Z,94448.56
2022-12-24T01:35:19.738Z,94449.88
2022-12-24T01:37:49.421Z,94451.75
2022-12-24T01:40:36.221Z,94463.69
2022-12-24T01:43:21.476Z,94454.41
2022-12-24T01:45:51.470Z,94469.69
2022-12-24T01:48:24.611Z,94470.19
2022-12-24T01:50:56.264Z,94485.16
2022-12-24T01:53:25.273Z,94485.16
2022-12-24T01:55:53.186Z,94494.66
2022-12-24T01:58:21.762Z,94504.97
2022-12-24T02:00:49.471Z,94501.16
2022-12-24T02:03:17.276Z,94500.59
2022-12-24T02:05:49.248Z,94501.69
2022-12-24T02:08:17.135Z,94506.31
2022-12-24T02:10:46.474Z,94507.63
2022-12-24T02:13:14.579Z,94515.28
2022-12-24T02:15:52.890Z,94525.91
2022-12-24T02:18:26.318Z,94534.81
2022-12-24T02:21:22.788Z,94535.47
2022-12-24T02:24:03.791Z,94534.31
2022-12-24T02:26:49.456Z,94524.78
2022-12-24T02:29:34.774Z,94525.59
2022-12-24T02:32:06.802Z,94520.72
2022-12-24T02:34:38.608Z,94526.75
2022-12-24T02:37:08.809Z,94516.38
2022-12-24T02:39:40.570Z,94520.47
2022-12-24T02:42:10.283Z,94519.66
2022-12-24T02:44:42.079Z,94529.72
2022-12-24T02:47:11.875Z,94529.38
2022-12-24T02:49:39.594Z,94538.31
2022-12-24T02:52:07.261Z,94547.28
2022-12-24T02:54:34.839Z,94551.59
2022-12-24T02:57:09.699Z,94555.38
2022-12-24T02:59:50.322Z,94549.94
2022-12-24T03:02:26.328Z,94570.13
2022-12-24T03:04:58.757Z,94560.81
2022-12-24T03:07:34.790Z,94571.16
2022-12-24T03:10:09.081Z,94574.13
2022-12-24T03:12:40.184Z,94573.78
2022-12-24T03:15:10.296Z,94583.34
2022-12-24T03:17:40.435Z,94578.63
2022-12-24T03:20:09.974Z,94570.22
2022-12-24T03:22:38.154Z,94577.56
2022-12-24T03:25:06.792Z,94571.00
2022-12-24T03:27:35.363Z,94574.47
2022-12-24T03:30:05.121Z,94574.16
2022-12-24T03:32:33.640Z,94579.59
2022-12-24T03:35:02.590Z,94586.34
2022-12-24T03:37:30.179Z,94583.88
2022-12-24T03:39:57.809Z,94591.78
2022-12-24T03:42:25.390Z,94588.81
2022-12-24T03:44:52.989Z,94599.69
2022-12-24T03:47:20.548Z,94604.06
2022-12-24T03:49:48.164Z,94581.72
2022-12-24T03:52:17.143Z,94574.66
2022-12-24T03:54:44.804Z,94583.88
2022-12-24T03:57:12.472Z,94589.81
2022-12-24T03:59:40.090Z,94599.06
2022-12-24T04:02:07.921Z,94610.16
2022-12-24T04:04:37.647Z,94612.31
2022-12-24T04:07:05.450Z,94609.59
2022-12-24T04:09:34.692Z,94615.28
2022-12-24T04:12:03.141Z,94624.00
2022-12-24T04:14:30.769Z,94621.38
2022-12-24T04:16:58.443Z,94636.34
2022-12-24T04:19:26.077Z,94628.72
2022-12-24T04:21:53.727Z,94633.78
2022-12-24T04:24:21.294Z,94626.81
2022-12-24T04:26:50.335Z,94641.22
2022-12-24T04:29:17.941Z,94651.25
2022-12-24T04:31:45.564Z,94648.47
2022-12-24T04:34:13.162Z,94651.13
2022-12-24T04:36:40.767Z,94645.19
2022-12-24T04:39:08.450Z,94650.63
2022-12-24T04:41:36.058Z,94644.84
2022-12-24T04:44:05.094Z,94647.81
2022-12-24T04:46:32.993Z,94661.66
2022-12-24T04:49:00.887Z,94662.47
2022-12-24T04:51:29.439Z,94661.41
2022-12-24T04:53:57.405Z,94665.28
2022-12-24T04:56:26.727Z,94660.91
2022-12-24T04:58:54.561Z,94649.78
2022-12-24T05:01:26.085Z,94651.69
2022-12-24T05:03:54.047Z,94643.53
2022-12-24T05:06:23.329Z,94656.38
2022-12-24T05:08:51.186Z,94658.78
2022-12-24T05:11:18.774Z,94652.50
2022-12-24T05:13:48.152Z,94659.03
2022-12-24T05:16:16.841Z,94666.56
2022-12-24T05:18:46.102Z,94662.47
2022-12-24T05:21:16.062Z,94645.09
2022-12-24T05:24:01.192Z,94646.75
2022-12-24T05:26:32.809Z,94662.22
2022-12-24T05:29:01.677Z,94664.13
2022-12-24T05:31:31.191Z,94682.06
2022-12-24T05:34:00.341Z,94660.91
2022-12-24T05:36:27.995Z,94671.53
2022-12-24T05:38:55.628Z,94682.88
2022-12-24T05:41:23.241Z,94685.03
2022-12-24T05:43:50.971Z,94688.84
2022-12-24T05:46:20.241Z,94687.19
2022-12-24T05:48:48.821Z,94691.81
2022-12-24T05:51:19.946Z,94703.72
2022-12-24T05:53:48.160Z,94713.53
2022-12-24T05:56:18.770Z,94701.25
2022-12-24T05:58:46.497Z,94689.50
2022-12-24T06:01:15.074Z,94690.78
2022-12-24T06:03:42.835Z,94706.53
2022-12-24T06:06:12.463Z,94707.56
2022-12-24T06:08:42.743Z,94716.50
2022-12-24T06:11:11.964Z,94714.81
2022-12-24T06:13:40.245Z,94722.88
2022-12-24T06:16:09.937Z,94725.03
2022-12-24T06:18:38.278Z,94733.66
2022-12-24T06:21:06.800Z,94733.09
2022-12-24T06:23:36.074Z,94731.44
2022-12-24T06:26:06.142Z,94724.84
2022-12-24T06:28:35.358Z,94730.78
2022-12-24T06:31:04.003Z,94730.16
2022-12-24T06:33:32.108Z,94731.81
2022-12-24T06:35:59.738Z,94733.72
2022-12-24T06:38:27.365Z,94736.69
2022-12-24T06:40:55.837Z,94729.81
2022-12-24T06:43:24.878Z,94747.69
2022-12-24T06:45:53.455Z,94751.13
2022-12-24T06:48:21.075Z,94756.56
2022-12-24T06:50:48.667Z,94751.38
2022-12-24T06:53:16.242Z,94745.34
2022-12-24T06:55:43.875Z,94754.56
2022-12-24T06:58:11.790Z,94758.34
2022-12-24T07:00:40.782Z,94763.78
2022-12-24T07:03:08.382Z,94753.53
2022-12-24T07:05:36.000Z,94743.88
2022-12-24T07:08:03.578Z,94756.63
2022-12-24T07:10:31.215Z,94756.28
2022-12-24T07:12:58.848Z,94756.75
2022-12-24T07:15:26.485Z,94766.09
2022-12-24T07:17:55.593Z,94765.28
2022-12-24T07:20:23.290Z,94772.72
2022-12-24T07:22:50.893Z,94776.97
2022-12-24T07:25:18.611Z,94776.38
2022-12-24T07:27:46.247Z,94779.69
2022-12-24T07:30:14.097Z,94779.44
2022-12-24T07:32:41.660Z,94782.75
2022-12-24T07:35:11.109Z,94793.34
2022-12-24T07:37:39.135Z,94810.47
2022-12-24T07:40:09.721Z,94810.47
2022-12-24T07:42:37.309Z,94812.13
2022-12-24T07:45:06.621Z,94805.06
2022-12-24T07:47:34.201Z,94826.75
2022-12-24T07:50:01.790Z,94823.81
2022-12-24T07:52:30.776Z,94824.16
2022-12-24T07:54:58.525Z,94828.97
2022-12-24T07:57:26.202Z,94817.06
2022-12-24T07:59:53.976Z,94826.25
2022-12-24T08:02:21.720Z,94830.63
2022-12-24T08:04:49.461Z,94837.97
2022-12-24T08:07:17.085Z,94835.50
2022-12-24T08:09:46.531Z,94837.63
2022-12-24T08:12:14.178Z,94845.25
2022-12-24T08:14:41.973Z,94851.75
2022-12-24T08:17:09.619Z,94855.28
2022-12-24T08:19:37.229Z,94863.44
2022-12-24T08:22:04.809Z,94871.47
2022-12-24T08:24:32.846Z,94873.94
2022-12-24T08:27:01.855Z,94869.56
2022-12-24T08:29:29.501Z,94878.78
2022-12-24T08:31:57.088Z,94882.56
2022-12-24T08:34:24.755Z,94874.66
2022-12-24T08:36:52.320Z,94874.88
2022-12-24T08:39:20.181Z,94882.78
2022-12-24T08:41:47.776Z,94884.28
2022-12-24T08:44:16.742Z,94904.72
2022-12-24T08:46:44.439Z,94906.81
2022-12-24T08:49:12.229Z,94896.59
2022-12-24T08:51:39.821Z,94906.81
2022-12-24T08:54:07.444Z,94914.97
2022-12-24T08:56:35.075Z,94918.91
2022-12-24T08:59:02.823Z,94917.47
2022-12-24T09:01:31.989Z,94936.22
2022-12-24T09:03:59.693Z,94942.00
2022-12-24T09:06:27.305Z,94930.47
2022-12-24T09:08:54.943Z,94932.59
2022-12-24T09:11:22.600Z,94934.22
2022-12-24T09:13:50.320Z,94934.56
2022-12-24T09:16:18.348Z,94932.47
2022-12-24T09:18:47.499Z,94944.97
2022-12-24T09:21:17.510Z,94949.69
2022-12-24T09:23:46.783Z,94950.88
2022-12-24T09:26:16.818Z,94960.69
2022-12-24T09:28:44.779Z,94949.22
2022-12-24T09:31:13.909Z,94959.50
2022-12-24T09:33:42.860Z,94963.84
2022-12-24T09:36:12.129Z,94961.38
2022-12-24T09:38:40.664Z,94960.31
2022-12-24T09:41:15.476Z,94959.22
2022-12-24T09:43:46.958Z,94971.53
2022-12-24T09:46:18.852Z,94959.84
2022-12-24T09:49:59.453Z,94948.38
2022-12-24T09:52:36.551Z,94948.88
2022-12-24T09:55:09.338Z,94955.81
2022-12-24T09:57:38.841Z,94954.31
2022-12-24T10:00:13.046Z,94958.44
2022-12-24T10:02:41.069Z,94955.47
2022-12-24T10:05:15.398Z,94965.06
2022-12-24T10:07:50.239Z,94957.97
2022-12-24T10:10:25.201Z,94968.69
2022-12-24T10:12:59.304Z,94963.63
2022-12-24T10:15:29.603Z,94959.41
2022-12-24T10:18:09.650Z,94956.91
2022-12-24T10:20:42.731Z,94952.66
2022-12-24T10:23:20.780Z,94953.84
2022-12-24T10:25:52.339Z,94971.06
2022-12-24T10:28:24.027Z,94962.00
2022-12-24T10:30:54.642Z,94952.41
2022-12-24T10:33:29.967Z,94950.03
2022-12-24T10:35:58.300Z,94950.66
2022-12-24T10:38:27.751Z,94938.72
2022-12-24T10:40:57.310Z,94934.22
2022-12-24T10:43:26.946Z,94928.66
2022-12-24T10:45:57.318Z,94930.78
2022-12-24T10:48:29.334Z,94936.81
2022-12-24T10:51:01.791Z,94937.16
2022-12-24T10:53:35.311Z,94939.31
2022-12-24T10:56:05.978Z,94946.59
2022-12-24T10:58:34.042Z,94949.66
2022-12-24T11:01:01.784Z,94942.50
2022-12-24T11:03:32.352Z,94941.06
2022-12-24T11:06:08.282Z,94957.59
2022-12-24T11:08:38.037Z,94963.72
2022-12-24T11:11:07.364Z,94967.41
2022-12-24T11:13:39.146Z,94964.94
2022-12-24T11:16:07.887Z,94958.69
2022-12-24T11:18:38.115Z,94958.44
2022-12-24T11:21:06.745Z,94952.19
2022-12-24T11:23:34.566Z,94950.66
2022-12-24T11:26:03.997Z,94944.72
2022-12-24T11:28:33.543Z,94938.72
2022-12-24T11:31:04.243Z,94939.06
2022-12-24T11:33:33.007Z,94935.63
2022-12-24T11:36:06.395Z,94943.31
2022-12-24T11:38:35.484Z,94935.25
2022-12-24T11:41:07.204Z,94936.94
2022-12-24T11:43:45.970Z,94934.22
2022-12-24T11:46:19.803Z,94931.03
2022-12-24T11:48:48.504Z,94947.06
2022-12-24T11:51:24.692Z,94943.53
2022-12-24T11:53:57.603Z,94940.69
2022-12-24T11:56:32.212Z,94934.75
2022-12-24T11:59:03.455Z,94940.31
2022-12-24T12:01:34.826Z,94940.41
2022-12-24T12:04:04.782Z,94936.97
2022-12-24T12:06:36.801Z,94940.28
2022-12-24T12:09:08.089Z,94936.59
2022-12-24T12:11:39.754Z,94936.13
2022-12-24T12:14:07.872Z,94936.03
2022-12-24T12:17:03.491Z,94936.69
2022-12-24T12:19:40.652Z,94934.78
2022-12-24T12:22:15.699Z,94929.03
2022-12-24T12:24:47.338Z,94931.03
2022-12-24T12:27:22.217Z,94937.19
2022-12-24T12:29:55.377Z,94938.22
2022-12-24T12:32:28.373Z,94936.13
2022-12-24T12:35:01.697Z,94936.03
2022-12-24T12:37:32.368Z,94942.41
2022-12-24T12:40:00.234Z,94941.84
2022-12-24T12:42:31.939Z,94943.38
2022-12-24T12:45:15.323Z,94943.94
2022-12-24T12:47:54.386Z,94952.84
2022-12-24T12:50:26.295Z,94954.03
2022-12-24T12:53:07.745Z,94946.31
2022-12-24T12:55:42.032Z,94950.34
2022-12-24T12:58:16.779Z,94967.72
2022-12-24T13:00:46.280Z,94968.81
2022-12-24T13:03:39.013Z,94971.75
2022-12-24T13:06:23.010Z,94969.84
2022-12-24T13:09:35.165Z,94969.75
2022-12-24T13:12:14.335Z,94971.63
2022-12-24T13:14:58.420Z,94965.97
2022-12-24T13:17:39.513Z,94964.56
2022-12-24T13:20:16.709Z,94979.56
2022-12-24T13:22:49.758Z,94975.66
2022-12-24T13:25:22.994Z,94978.84
2022-12-24T13:27:50.720Z,94983.72
2022-12-24T13:33:49.867Z,94983.38
2022-12-24T13:36:18.527Z,94975.81
2022-12-24T13:38:48.583Z,94974.25
2022-12-24T13:41:52.946Z,94982.97
2022-12-24T13:44:32.865Z,94974.84
2022-12-24T13:47:31.608Z,94974.25
2022-12-24T13:50:18.267Z,94981.94
2022-12-24T13:52:53.017Z,94993.03
2022-12-24T13:55:20.787Z,94993.72
2022-12-24T13:57:55.537Z,94993.72
2022-12-24T14:00:43.200Z,94985.59
2022-12-24T14:03:23.190Z,94991.50
2022-12-24T14:05:54.033Z,94991.00
2022-12-24T14:08:35.867Z,95003.31
2022-12-24T14:11:12.832Z,94991.00
2022-12-24T14:13:55.767Z,94981.94
2022-12-24T14:16:24.834Z,94990.78
2022-12-24T14:19:00.267Z,94994.44
2022-12-24T14:21:32.252Z,94990.31
2022-12-24T14:24:03.015Z,94995.97
2022-12-24T14:26:32.227Z,94997.75
2022-12-24T14:29:03.356Z,94997.38
2022-12-24T14:31:31.101Z,94997.00
2022-12-24T14:34:07.891Z,94994.50
2022-12-24T14:36:37.078Z,94993.34
2022-12-24T14:39:07.047Z,95006.31
2022-12-24T14:41:42.174Z,95006.31
2022-12-24T14:44:17.940Z,95010.72
2022-12-24T14:46:49.462Z,95014.84
2022-12-24T14:49:28.834Z,95008.97
2022-12-24T14:52:18.369Z,95014.84
2022-12-24T14:54:55.000Z,95009.06
2022-12-24T14:57:24.399Z,95013.28
2022-12-24T14:59:53.935Z,95015.41
2022-12-24T15:02:41.568Z,95020.69
2022-12-24T15:05:14.458Z,95022.38
2022-12-24T15:07:47.732Z,95012.34
2022-12-24T15:10:30.905Z,95010.44
2022-12-24T15:13:03.386Z,95019.66
2022-12-24T15:15:31.384Z,95024.31
2022-12-24T15:17:59.370Z,95016.41
2022-12-24T15:20:29.143Z,95009.34
2022-12-24T15:22:59.228Z,95013.94
2022-12-24T15:25:29.848Z,95015.00
2022-12-24T15:27:57.854Z,95025.25
2022-12-24T15:30:28.074Z,95024.06
2022-12-24T15:32:57.366Z,95029.56
2022-12-24T15:35:33.955Z,95023.09
2022-12-24T15:38:03.280Z,95029.09
2022-12-24T15:40:33.308Z,95024.13
2022-12-24T15:43:01.023Z,95037.09
2022-12-24T15:45:30.547Z,95045.47
2022-12-24T15:48:00.401Z,95046.28
2022-12-24T15:50:31.366Z,95038.81
2022-12-24T15:53:21.096Z,95042.25
2022-12-24T15:56:01.632Z,95030.41
2022-12-24T15:58:31.294Z,95021.47
2022-12-24T16:01:04.021Z,95027.69
2022-12-24T16:03:32.231Z,95027.31
2022-12-24T16:06:01.224Z,95027.31
2022-12-24T16:08:34.709Z,95014.84
2022-12-24T16:11:17.082Z,95015.22
2022-12-24T16:13:57.379Z,95025.22
2022-12-24T16:16:33.374Z,95028.16
2022-12-24T16:19:01.861Z,95028.16
2022-12-24T16:21:31.767Z,95039.00
2022-12-24T16:24:06.228Z,95047.13
2022-12-24T16:26:34.055Z,95046.53
2022-12-24T16:29:01.728Z,95046.97
2022-12-24T16:31:33.163Z,95047.19
2022-12-24T16:34:02.073Z,95048.94
2022-12-24T16:36:30.561Z,95050.84
2022-12-24T16:39:15.995Z,95045.63
2022-12-24T16:42:02.747Z,95049.75
2022-12-24T16:44:30.360Z,95051.44
2022-12-24T16:47:00.226Z,95050.63
2022-12-24T16:49:28.946Z,95052.47
2022-12-24T16:51:56.517Z,95047.06
2022-12-24T16:54:24.143Z,95050.63
2022-12-24T16:56:53.047Z,95052.25
2022-12-24T16:59:22.460Z,95065.78
2022-12-24T17:01:50.236Z,95063.72
2022-12-24T17:04:19.041Z,95059.56
2022-12-24T17:06:46.763Z,95051.66
2022-12-24T17:09:14.374Z,95065.19
2022-12-24T17:11:41.955Z,95057.06
2022-12-24T17:14:18.025Z,95046.91
2022-12-24T17:16:47.816Z,95047.97
2022-12-24T17:19:15.413Z,95046.91
2022-12-24T17:21:43.010Z,95045.88
2022-12-24T17:24:10.625Z,95050.47
2022-12-24T17:26:38.260Z,95056.69
2022-12-24T17:29:06.363Z,95054.34
2022-12-24T17:31:35.385Z,95062.50
2022-12-24T17:34:03.074Z,95063.78
2022-12-24T17:36:30.691Z,95070.41
2022-12-24T17:38:58.423Z,95068.50
2022-12-24T17:41:26.033Z,95049.69
2022-12-24T17:43:53.623Z,95048.63
2022-12-24T17:46:23.299Z,95051.13
2022-12-24T17:48:53.181Z,95055.50
2022-12-24T17:51:23.188Z,95063.38
2022-12-24T17:53:50.952Z,95056.91
2022-12-24T17:56:18.745Z,95064.00
2022-12-24T17:58:47.325Z,95062.94
2022-12-24T18:01:16.711Z,95067.31
2022-12-24T18:03:45.208Z,95067.75
2022-12-24T18:06:15.096Z,95073.63
2022-12-24T18:08:43.620Z,95061.16
2022-12-24T18:11:12.843Z,95068.22
2022-12-24T18:13:40.515Z,95067.38
2022-12-24T18:16:15.182Z,95063.00
2022-12-24T18:18:43.057Z,95063.47
2022-12-24T18:21:11.252Z,95079.13
2022-12-24T18:23:43.341Z,95081.59
2022-12-24T18:26:11.189Z,95086.22
2022-12-24T18:28:38.834Z,95085.41
2022-12-24T18:31:08.277Z,95086.22
2022-12-24T18:33:36.801Z,95083.72
2022-12-24T18:36:04.808Z,95085.41
2022-12-24T18:38:32.489Z,95083.13
2022-12-24T18:41:04.998Z,95078.75
2022-12-24T18:43:32.658Z,95082.97
2022-12-24T18:46:00.307Z,95079.63
2022-12-24T18:48:27.911Z,95080.50
2022-12-24T18:50:56.770Z,95073.25
2022-12-24T18:53:24.384Z,95079.94
2022-12-24T18:55:52.021Z,95074.50
2022-12-24T18:58:21.036Z,95078.91
2022-12-24T19:00:48.754Z,95083.06
2022-12-24T19:03:16.917Z,95083.88
2022-12-24T19:05:44.571Z,95097.19
2022-12-24T19:10:59.689Z,95094.25
2022-12-24T19:13:28.660Z,95096.75
2022-12-24T19:15:56.361Z,95096.53
2022-12-24T19:18:23.992Z,95094.63
2022-12-24T19:20:51.683Z,95105.25
2022-12-24T19:23:19.273Z,95107.16
2022-12-24T19:25:46.845Z,95104.44
2022-12-24T19:28:14.429Z,95110.44
2022-12-24T19:30:43.458Z,95111.50
2022-12-24T19:33:11.740Z,95109.59
2022-12-24T19:35:39.409Z,95119.41
2022-12-24T19:38:06.987Z,95109.59
2022-12-24T19:40:37.317Z,95101.94
2022-12-24T19:43:05.332Z,95102.75
2022-12-24T19:45:32.959Z,95105.69
2022-12-24T19:48:01.939Z,95103.22
2022-12-24T19:50:29.976Z,95098.59
2022-12-24T19:52:57.660Z,95101.31
2022-12-24T19:55:25.229Z,95100.13
2022-12-24T19:57:52.973Z,95099.09
2022-12-24T20:00:21.326Z,95098.22
2022-12-24T20:02:49.028Z,95101.78
2022-12-24T20:05:18.205Z,95098.59
2022-12-24T20:07:45.841Z,95093.81
2022-12-24T20:10:13.435Z,95092.16
2022-12-24T20:12:41.031Z,95086.28
2022-12-24T20:15:10.599Z,95093.34
2022-12-24T20:17:38.191Z,95089.22
2022-12-24T20:20:07.125Z,95096.06
2022-12-24T20:22:36.202Z,95099.59
2022-12-24T20:25:03.880Z,95106.44
2022-12-24T20:27:31.519Z,95104.59
2022-12-24T20:29:59.231Z,95100.81
2022-12-24T20:32:29.429Z,95101.19
2022-12-24T20:34:57.174Z,95102.25
2022-12-24T20:37:24.716Z,95102.03
2022-12-24T20:39:55.311Z,95105.41
2022-12-24T20:42:22.948Z,95109.16
2022-12-24T20:44:50.565Z,95107.06
2022-12-24T20:47:18.112Z,95110.81
2022-12-24T20:49:45.984Z,95105.03
2022-12-24T20:52:13.697Z,95103.13
2022-12-24T20:54:41.279Z,95106.06
2022-12-24T20:57:10.406Z,95094.84
2022-12-24T20:59:38.259Z,95103.00
2022-12-24T21:02:06.144Z,95104.66
2022-12-24T21:04:33.840Z,95100.06
2022-12-24T21:07:01.416Z,95098.38
2022-12-24T21:09:28.961Z,95099.84
2022-12-24T21:12:13.971Z,95099.84
2022-12-24T21:14:43.017Z,95097.34
2022-12-24T21:17:15.373Z,95094.41
2022-12-24T21:19:43.549Z,95096.31
2022-12-24T21:22:11.224Z,95096.31
2022-12-24T21:24:38.978Z,95102.53
2022-12-24T21:27:06.700Z,95110.66
2022-12-24T21:29:34.303Z,95097.56
2022-12-24T21:32:03.506Z,95107.97
2022-12-24T21:34:31.191Z,95106.88
2022-12-24T21:36:58.773Z,95105.25
2022-12-24T21:39:26.374Z,95113.38
2022-12-24T21:41:53.954Z,95110.91
2022-12-24T21:44:21.574Z,95115.88
2022-12-24T21:46:49.189Z,95119.63
2022-12-24T21:49:35.586Z,95121.28
2022-12-24T21:52:03.182Z,95115.00
2022-12-24T21:54:31.407Z,95122.94
2022-12-24T21:57:18.409Z,95117.72
2022-12-24T21:59:46.236Z,95123.16
2022-12-24T22:02:15.496Z,95124.22
2022-12-24T22:04:45.266Z,95137.16
2022-12-24T22:07:41.342Z,95130.31
2022-12-24T22:10:28.121Z,95127.44
2022-12-24T22:12:56.285Z,95136.81
2022-12-24T22:15:23.890Z,95135.25
2022-12-24T22:17:51.508Z,95139.22
2022-12-24T22:20:20.534Z,95139.00
2022-12-24T22:22:48.926Z,95133.59
2022-12-24T22:25:16.917Z,95139.84
2022-12-24T22:27:44.502Z,95139.38
2022-12-24T22:30:13.104Z,95137.13
2022-12-24T22:32:40.666Z,95128.59
2022-12-24T22:35:08.767Z,95136.13
2022-12-24T22:37:37.707Z,95134.50
2022-12-24T22:40:06.289Z,95140.72
2022-12-24T22:42:34.068Z,95149.06
2022-12-24T22:45:01.783Z,95140.34
2022-12-24T22:47:30.077Z,95137.84
2022-12-24T22:49:57.728Z,95147.03
2022-12-24T22:52:25.419Z,95139.97
2022-12-24T22:54:54.860Z,95138.72
2022-12-24T22:57:22.442Z,95140.06
2022-12-24T22:59:50.274Z,95144.03
2022-12-24T23:02:22.263Z,95150.91
2022-12-24T23:04:55.682Z,95137.97
2022-12-24T23:07:23.316Z,95143.38
2022-12-24T23:09:50.970Z,95139.44
2022-12-24T23:12:39.900Z,95138.63
2022-12-24T23:15:07.858Z,95136.75
2022-12-24T23:17:35.488Z,95145.94
2022-12-24T23:20:03.872Z,95145.97
2022-12-24T23:22:31.614Z,95150.59
2022-12-24T23:24:59.226Z,95145.66
2022-12-24T23:27:28.196Z,95150.38
2022-12-24T23:29:55.992Z,95146.84
2022-12-24T23:32:23.820Z,95142.25
2022-12-24T23:34:51.401Z,95143.09
2022-12-24T23:37:19.028Z,95135.47
2022-12-24T23:39:46.595Z,95142.13
2022-12-24T23:42:14.203Z,95135.31
2022-12-24T23:44:43.162Z,95135.94
2022-12-24T23:47:10.744Z,95136.38
2022-12-24T23:49:38.321Z,95126.38
2022-12-24T23:52:07.582Z,95128.66
2022-12-24T23:54:35.165Z,95131.13
2022-12-24T23:57:02.818Z,95134.44
2022-12-24T23:59:30.450Z,95141.31
